createdAt,value
2022-09-30T00:01:30.220Z,7.83
2022-09-30T00:03:59.903Z,7.90
2022-09-30T00:06:29.650Z,8.20
2022-09-30T00:08:57.730Z,7.90
2022-09-30T00:11:27.294Z,8.03
2022-09-30T00:13:55.997Z,7.63
2022-09-30T00:16:25.042Z,7.63
2022-09-30T00:18:55.310Z,7.27
2022-09-30T00:21:25.568Z,8.47
2022-09-30T00:23:53.570Z,7.47
2022-09-30T00:26:24.631Z,7.60
2022-09-30T00:28:53.975Z,8.00
2022-09-30T00:31:23.715Z,7.07
2022-09-30T00:34:05.458Z,8.30
2022-09-30T00:36:35.059Z,8.23
2022-09-30T00:39:02.915Z,8.27
2022-09-30T00:41:30.591Z,8.17
2022-09-30T00:43:58.143Z,7.03
2022-09-30T00:46:33.340Z,6.83
2022-09-30T00:49:06.104Z,7.17
2022-09-30T00:51:40.178Z,6.83
2022-09-30T00:54:12.087Z,7.63
2022-09-30T00:56:43.735Z,8.00
2022-09-30T00:59:15.801Z,8.27
2022-09-30T01:01:43.563Z,7.67
2022-09-30T01:04:14.027Z,8.07
2022-09-30T01:06:44.061Z,7.17
2022-09-30T01:09:12.490Z,6.87
2022-09-30T01:11:40.315Z,7.03
2022-09-30T01:14:12.421Z,7.53
2022-09-30T01:16:59.140Z,8.10
2022-09-30T01:19:58.956Z,7.60
2022-09-30T01:22:42.495Z,7.20
2022-09-30T01:25:39.927Z,8.37
2022-09-30T01:28:28.292Z,8.00
2022-09-30T01:31:07.236Z,7.73
2022-09-30T01:33:46.286Z,7.20
2022-09-30T01:36:28.453Z,7.70
2022-09-30T01:39:04.430Z,7.80
2022-09-30T01:41:42.196Z,7.47
2022-09-30T01:44:17.586Z,7.70
2022-09-30T01:46:51.748Z,8.33
2022-09-30T01:49:25.913Z,7.80
2022-09-30T01:52:00.028Z,8.27
2022-09-30T01:54:36.402Z,8.00
2022-09-30T01:57:09.386Z,8.50
2022-09-30T01:59:42.471Z,8.03
2022-09-30T02:02:17.948Z,9.67
2022-09-30T02:04:51.572Z,8.63
2022-09-30T02:07:26.042Z,7.83
2022-09-30T02:09:59.875Z,8.97
2022-09-30T02:12:34.861Z,8.80
2022-09-30T02:15:06.664Z,8.43
2022-09-30T02:17:43.093Z,8.63
2022-09-30T02:20:15.038Z,8.80
2022-09-30T02:22:46.494Z,9.23
2022-09-30T02:25:20.432Z,9.33
2022-09-30T02:27:54.957Z,9.30
2022-09-30T02:30:25.263Z,10.13
2022-09-30T02:32:58.738Z,9.07
2022-09-30T02:35:29.904Z,8.50
2022-09-30T02:38:03.424Z,9.63
2022-09-30T02:40:36.881Z,8.57
2022-09-30T02:43:06.425Z,7.90
2022-09-30T02:45:40.363Z,8.13
2022-09-30T02:48:25.229Z,7.90
2022-09-30T02:50:58.571Z,8.57
2022-09-30T02:53:32.531Z,7.90
2022-09-30T02:56:20.506Z,7.83
2022-09-30T02:58:50.669Z,7.80
2022-09-30T03:01:18.858Z,7.10
2022-09-30T03:03:51.593Z,7.03
2022-09-30T03:06:20.355Z,7.63
2022-09-30T03:08:48.511Z,7.43
2022-09-30T03:11:18.771Z,7.77
2022-09-30T03:14:03.719Z,6.77
2022-09-30T03:16:46.575Z,8.00
2022-09-30T03:19:36.978Z,6.90
2022-09-30T03:22:24.748Z,7.47
2022-09-30T03:25:12.132Z,6.17
2022-09-30T03:27:51.774Z,7.30
2022-09-30T03:30:24.534Z,6.57
2022-09-30T03:33:07.385Z,6.53
2022-09-30T03:35:48.409Z,7.67
2022-09-30T03:38:29.566Z,7.07
2022-09-30T03:41:05.833Z,6.90
2022-09-30T03:43:36.931Z,7.00
2022-09-30T03:46:13.712Z,7.30
2022-09-30T03:48:43.469Z,6.90
2022-09-30T03:51:13.055Z,6.97
2022-09-30T03:53:42.120Z,7.10
2022-09-30T03:56:10.161Z,7.60
2022-09-30T03:58:42.252Z,7.53
2022-09-30T04:01:19.138Z,7.10
2022-09-30T04:03:47.651Z,7.57
2022-09-30T04:06:16.581Z,7.37
2022-09-30T04:08:44.373Z,6.57
2022-09-30T04:11:12.689Z,6.83
2022-09-30T04:13:40.356Z,7.33
2022-09-30T04:16:09.026Z,7.60
2022-09-30T04:18:37.257Z,6.93
2022-09-30T04:21:07.268Z,7.43
2022-09-30T04:23:41.689Z,7.23
2022-09-30T04:26:12.608Z,7.10
2022-09-30T04:28:40.199Z,8.80
2022-09-30T04:31:08.455Z,7.03
2022-09-30T04:33:36.143Z,6.70
2022-09-30T04:36:04.769Z,7.20
2022-09-30T04:38:32.402Z,7.03
2022-09-30T04:41:03.869Z,7.07
2022-09-30T04:43:31.451Z,7.10
2022-09-30T04:45:59.218Z,7.23
2022-09-30T04:48:28.046Z,7.90
2022-09-30T04:50:55.660Z,6.87
2022-09-30T04:53:23.219Z,6.83
2022-09-30T04:55:50.841Z,6.87
2022-09-30T04:58:19.918Z,7.80
2022-09-30T05:00:47.531Z,7.87
2022-09-30T05:03:15.343Z,7.90
2022-09-30T05:05:45.397Z,7.93
2022-09-30T05:08:12.976Z,7.07
2022-09-30T05:10:40.626Z,7.97
2022-09-30T05:13:08.316Z,8.10
2022-09-30T05:15:37.388Z,9.53
2022-09-30T05:18:05.978Z,9.10
2022-09-30T05:20:33.883Z,8.80
2022-09-30T05:23:01.568Z,8.60
2022-09-30T05:25:29.515Z,8.70
2022-09-30T05:27:57.080Z,8.90
2022-09-30T05:30:24.860Z,8.43
2022-09-30T05:32:53.987Z,7.67
2022-09-30T05:35:21.639Z,7.80
2022-09-30T05:37:49.264Z,6.90
2022-09-30T05:40:17.232Z,7.17
2022-09-30T05:42:47.291Z,8.00
2022-09-30T05:45:14.971Z,8.40
2022-09-30T05:47:42.591Z,8.57
2022-09-30T05:50:11.881Z,8.20
2022-09-30T05:52:39.499Z,8.13
2022-09-30T05:55:07.814Z,8.53
2022-09-30T05:57:36.249Z,8.00
2022-09-30T06:00:06.570Z,9.90
2022-09-30T06:02:38.346Z,8.10
2022-09-30T06:05:08.507Z,7.43
2022-09-30T06:07:38.707Z,7.20
2022-09-30T06:10:12.567Z,6.20
2022-09-30T06:12:40.812Z,6.30
2022-09-30T06:15:10.257Z,5.33
2022-09-30T06:17:38.283Z,7.77
2022-09-30T06:20:06.625Z,6.37
2022-09-30T06:22:36.013Z,5.63
2022-09-30T06:25:09.235Z,5.37
2022-09-30T06:27:38.092Z,5.40
2022-09-30T06:30:08.482Z,5.03
2022-09-30T06:32:36.221Z,5.77
2022-09-30T06:35:04.107Z,5.53
2022-09-30T06:37:31.682Z,5.10
2022-09-30T06:39:59.309Z,6.03
2022-09-30T06:42:28.542Z,5.53
2022-09-30T06:44:56.402Z,5.60
2022-09-30T06:47:26.010Z,5.90
2022-09-30T06:49:58.571Z,5.20
2022-09-30T06:52:27.197Z,4.80
2022-09-30T06:54:56.557Z,5.10
2022-09-30T06:57:26.675Z,4.97
2022-09-30T06:59:55.745Z,4.83
2022-09-30T07:02:23.498Z,6.50
2022-09-30T07:04:51.258Z,4.97
2022-09-30T07:07:21.940Z,5.73
2022-09-30T07:09:49.762Z,5.00
2022-09-30T07:12:17.693Z,5.40
2022-09-30T07:14:45.336Z,5.57
2022-09-30T07:17:14.237Z,5.50
2022-09-30T07:19:41.861Z,5.13
2022-09-30T07:22:27.165Z,5.13
2022-09-30T07:24:55.209Z,6.23
2022-09-30T07:27:22.801Z,5.40
2022-09-30T07:30:08.252Z,5.87
2022-09-30T07:32:39.547Z,5.37
2022-09-30T07:35:07.947Z,6.10
2022-09-30T07:37:36.807Z,6.77
2022-09-30T07:40:06.883Z,6.60
2022-09-30T07:42:37.551Z,6.57
2022-09-30T07:45:06.130Z,6.50
2022-09-30T07:47:34.310Z,6.63
2022-09-30T07:50:04.007Z,7.03
2022-09-30T07:52:31.705Z,6.50
2022-09-30T07:54:59.272Z,6.30
2022-09-30T07:57:26.938Z,5.73
2022-09-30T07:59:54.609Z,5.57
2022-09-30T08:02:24.527Z,4.50
2022-09-30T08:04:52.322Z,4.00
2022-09-30T08:07:21.284Z,3.83
2022-09-30T08:09:49.039Z,4.10
2022-09-30T08:12:16.663Z,4.13
2022-09-30T08:14:45.350Z,4.83
2022-09-30T08:17:15.738Z,4.37
2022-09-30T08:19:44.728Z,4.30
2022-09-30T08:22:14.184Z,3.80
2022-09-30T08:24:43.301Z,3.33
2022-09-30T08:27:11.292Z,3.83
2022-09-30T08:29:56.133Z,3.63
2022-09-30T08:32:25.136Z,4.80
2022-09-30T08:34:52.721Z,5.87
2022-09-30T08:37:20.289Z,5.47
2022-09-30T08:39:49.509Z,5.27
2022-09-30T08:42:43.745Z,6.70
2022-09-30T08:45:27.103Z,4.60
2022-09-30T08:48:06.443Z,4.90
2022-09-30T08:50:45.059Z,5.60
2022-09-30T08:53:17.223Z,5.90
2022-09-30T08:55:47.402Z,5.67
2022-09-30T08:58:25.321Z,5.60
2022-09-30T09:00:58.122Z,5.50
2022-09-30T09:03:29.397Z,5.10
2022-09-30T09:06:05.135Z,5.20
2022-09-30T09:08:49.166Z,5.53
2022-09-30T09:11:33.878Z,5.47
2022-09-30T09:14:08.116Z,5.57
2022-09-30T09:16:41.946Z,4.83
2022-09-30T09:19:11.778Z,4.73
2022-09-30T09:21:51.467Z,5.90
2022-09-30T09:24:22.082Z,4.90
2022-09-30T09:26:53.949Z,4.70
2022-09-30T09:29:39.593Z,5.20
2022-09-30T09:32:14.214Z,4.27
2022-09-30T09:34:42.977Z,5.20
2022-09-30T09:37:22.149Z,4.43
2022-09-30T09:40:04.598Z,5.20
2022-09-30T09:42:47.621Z,4.90
2022-09-30T09:45:27.495Z,5.20
2022-09-30T09:47:57.200Z,5.33
2022-09-30T09:50:28.850Z,5.40
2022-09-30T09:53:22.076Z,4.67
2022-09-30T09:55:50.881Z,4.87
2022-09-30T09:58:20.782Z,4.90
2022-09-30T10:01:28.589Z,4.97
2022-09-30T10:04:12.483Z,5.07
2022-09-30T10:06:45.160Z,4.17
2022-09-30T10:09:28.325Z,4.03
2022-09-30T10:12:26.865Z,5.10
2022-09-30T10:15:01.301Z,4.30
2022-09-30T10:17:30.636Z,4.50
2022-09-30T10:20:08.635Z,4.63
2022-09-30T10:22:37.767Z,4.33
2022-09-30T10:25:19.443Z,4.53
2022-09-30T10:27:53.713Z,4.43
2022-09-30T10:30:42.837Z,4.17
2022-09-30T10:33:17.389Z,4.13
2022-09-30T10:35:54.237Z,4.80
2022-09-30T10:38:22.492Z,4.23
2022-09-30T10:40:52.034Z,5.27
2022-09-30T10:43:29.979Z,3.90
2022-09-30T10:46:24.529Z,3.57
2022-09-30T10:48:54.249Z,3.90
2022-09-30T10:51:31.398Z,4.47
2022-09-30T10:53:59.306Z,3.60
2022-09-30T10:56:43.941Z,3.63
2022-09-30T10:59:19.891Z,4.27
2022-09-30T11:01:57.467Z,3.70
2022-09-30T11:04:34.990Z,3.20
2022-09-30T11:07:13.480Z,3.50
2022-09-30T11:09:49.825Z,2.90
2022-09-30T11:12:24.468Z,3.67
2022-09-30T11:15:03.216Z,3.27
2022-09-30T11:17:37.921Z,3.33
2022-09-30T11:20:15.352Z,3.10
2022-09-30T11:22:49.654Z,3.07
2022-09-30T11:25:24.852Z,3.07
2022-09-30T11:28:16.731Z,2.70
2022-09-30T11:30:53.397Z,2.87
2022-09-30T11:33:41.090Z,2.60
2022-09-30T11:36:18.655Z,2.60
2022-09-30T11:39:05.107Z,3.00
2022-09-30T11:41:36.829Z,3.03
2022-09-30T11:44:19.418Z,3.13
2022-09-30T11:47:22.742Z,2.77
2022-09-30T11:50:07.913Z,2.27
2022-09-30T11:52:46.516Z,2.07
2022-09-30T11:55:36.804Z,2.70
2022-09-30T11:58:28.590Z,2.70
2022-09-30T12:01:10.028Z,2.20
2022-09-30T12:03:42.914Z,3.03
2022-09-30T12:06:26.420Z,2.30
2022-09-30T12:08:59.722Z,2.20
2022-09-30T12:11:35.533Z,2.03
2022-09-30T12:14:08.586Z,1.70
2022-09-30T12:16:38.867Z,2.13
2022-09-30T12:19:16.202Z,2.40
2022-09-30T12:21:54.156Z,2.33
2022-09-30T12:24:30.679Z,2.10
2022-09-30T12:26:59.513Z,2.40
2022-09-30T12:29:50.625Z,2.30
2022-09-30T12:32:44.955Z,2.07
2022-09-30T12:35:36.449Z,2.27
2022-09-30T12:38:21.900Z,1.97
2022-09-30T12:41:03.357Z,1.87
2022-09-30T12:44:05.759Z,1.83
2022-09-30T12:46:53.074Z,1.50
2022-09-30T12:49:26.272Z,1.70
2022-09-30T12:51:57.826Z,2.17
2022-09-30T12:54:32.149Z,1.73
2022-09-30T12:57:03.948Z,2.47
2022-09-30T12:59:34.925Z,2.70
2022-09-30T13:02:06.234Z,1.90
2022-09-30T13:04:36.668Z,1.93
2022-09-30T13:07:22.874Z,1.70
2022-09-30T13:10:26.518Z,1.93
2022-09-30T13:13:17.834Z,1.83
2022-09-30T13:15:46.226Z,1.90
2022-09-30T13:18:51.574Z,1.70
2022-09-30T13:21:22.946Z,1.60
2022-09-30T13:23:51.905Z,1.70
2022-09-30T13:26:41.613Z,1.80
2022-09-30T13:29:39.193Z,1.83
2022-09-30T13:32:09.324Z,1.73
2022-09-30T13:34:55.959Z,1.70
2022-09-30T13:37:39.392Z,1.50
2022-09-30T13:40:17.794Z,1.67
2022-09-30T13:42:54.635Z,1.93
2022-09-30T13:45:36.369Z,1.37
2022-09-30T13:48:12.482Z,1.37
2022-09-30T13:50:46.446Z,1.60
2022-09-30T13:53:20.485Z,1.43
2022-09-30T13:55:53.604Z,1.73
2022-09-30T13:58:45.731Z,1.60
2022-09-30T14:01:26.448Z,1.50
2022-09-30T14:04:23.384Z,1.57
2022-09-30T14:07:06.011Z,1.53
2022-09-30T14:09:53.469Z,1.30
2022-09-30T14:12:46.575Z,1.60
2022-09-30T14:15:57.297Z,1.47
2022-09-30T14:18:47.140Z,1.70
2022-09-30T14:21:27.998Z,1.30
2022-09-30T14:24:01.246Z,1.40
2022-09-30T14:26:53.427Z,1.73
2022-09-30T14:29:29.601Z,1.60
2022-09-30T14:31:59.855Z,1.80
2022-09-30T14:34:31.494Z,1.40
2022-09-30T14:36:59.459Z,1.90
2022-09-30T14:39:30.441Z,2.67
2022-09-30T14:42:01.961Z,1.47
2022-09-30T14:44:33.870Z,1.80
2022-09-30T14:47:05.868Z,1.67
2022-09-30T14:49:37.421Z,1.70
2022-09-30T14:52:06.578Z,1.70
2022-09-30T14:54:34.687Z,1.83
2022-09-30T14:57:04.451Z,1.60
2022-09-30T14:59:34.401Z,1.87
2022-09-30T15:02:05.814Z,1.53
2022-09-30T15:04:36.535Z,1.43
2022-09-30T15:07:07.151Z,1.47
2022-09-30T15:09:37.666Z,1.87
2022-09-30T15:12:08.234Z,1.70
2022-09-30T15:14:46.844Z,1.60
2022-09-30T15:17:21.059Z,1.90
2022-09-30T15:19:50.202Z,2.07
2022-09-30T15:22:19.473Z,1.63
2022-09-30T15:24:48.344Z,1.50
2022-09-30T15:27:20.851Z,2.27
2022-09-30T15:29:55.689Z,1.73
2022-09-30T15:32:27.844Z,1.70
2022-09-30T15:34:58.620Z,1.90
2022-09-30T15:37:33.180Z,1.63
2022-09-30T15:40:20.187Z,1.57
2022-09-30T15:42:55.691Z,2.50
2022-09-30T15:45:35.125Z,1.93
2022-09-30T15:48:06.726Z,2.00
2022-09-30T15:50:42.186Z,1.60
2022-09-30T15:53:18.232Z,1.40
2022-09-30T15:55:50.408Z,1.73
2022-09-30T15:58:39.424Z,2.00
2022-09-30T16:01:15.116Z,1.63
2022-09-30T16:03:54.272Z,1.77
2022-09-30T16:06:26.357Z,1.73
2022-09-30T16:08:59.079Z,1.70
2022-09-30T16:11:30.254Z,2.27
2022-09-30T16:14:00.395Z,2.00
2022-09-30T16:16:32.267Z,2.43
2022-09-30T16:19:03.036Z,1.93
2022-09-30T16:21:44.341Z,1.60
2022-09-30T16:24:43.278Z,1.73
2022-09-30T16:27:29.096Z,1.90
2022-09-30T16:29:57.616Z,2.00
2022-09-30T16:32:26.789Z,1.93
2022-09-30T16:34:56.248Z,1.80
2022-09-30T16:37:24.588Z,1.70
2022-09-30T16:39:52.408Z,2.10
2022-09-30T16:42:20.839Z,1.80
2022-09-30T16:44:48.581Z,2.60
2022-09-30T16:47:17.744Z,2.17
2022-09-30T16:49:47.304Z,2.00
2022-09-30T16:52:17.342Z,2.03
2022-09-30T16:54:45.044Z,2.00
2022-09-30T16:57:14.909Z,1.90
2022-09-30T16:59:42.971Z,2.00
2022-09-30T17:02:15.650Z,1.80
2022-09-30T17:04:47.171Z,2.27
2022-09-30T17:07:16.326Z,2.17
2022-09-30T17:09:44.841Z,2.50
2022-09-30T17:12:14.100Z,2.43
2022-09-30T17:14:45.209Z,2.43
2022-09-30T17:17:13.954Z,3.27
2022-09-30T17:19:42.103Z,3.37
2022-09-30T17:22:09.824Z,2.03
2022-09-30T17:24:38.752Z,2.27
2022-09-30T17:27:07.388Z,2.20
2022-09-30T17:29:41.692Z,2.40
2022-09-30T17:32:10.577Z,2.47
2022-09-30T17:34:38.393Z,2.70
2022-09-30T17:39:40.293Z,2.70
2022-09-30T17:42:26.167Z,2.60
2022-09-30T17:44:54.068Z,2.93
2022-09-30T17:47:22.340Z,2.67
2022-09-30T17:49:50.256Z,2.17
2022-09-30T17:52:18.107Z,2.80
2022-09-30T17:54:52.440Z,2.30
2022-09-30T17:57:24.218Z,2.73
2022-09-30T17:59:51.975Z,2.33
2022-09-30T18:02:21.211Z,2.70
2022-09-30T18:04:49.502Z,2.50
2022-09-30T18:07:17.161Z,2.63
2022-09-30T18:09:44.822Z,3.30
2022-09-30T18:12:13.870Z,3.33
2022-09-30T18:14:43.723Z,2.93
2022-09-30T18:17:11.395Z,3.20
2022-09-30T18:19:39.028Z,3.00
2022-09-30T18:22:06.768Z,3.03
2022-09-30T18:24:51.909Z,2.80
2022-09-30T18:27:22.654Z,3.50
2022-09-30T18:29:50.380Z,3.27
2022-09-30T18:32:19.355Z,3.10
2022-09-30T18:34:47.032Z,3.20
2022-09-30T18:37:14.689Z,4.43
2022-09-30T18:39:42.330Z,3.30
2022-09-30T18:42:09.915Z,3.60
2022-09-30T18:44:40.066Z,3.30
2022-09-30T18:47:07.942Z,3.93
2022-09-30T18:49:35.558Z,3.93
2022-09-30T18:52:03.229Z,3.90
2022-09-30T18:54:32.131Z,4.60
2022-09-30T18:56:59.919Z,4.70
2022-09-30T18:59:27.676Z,5.03
2022-09-30T19:01:58.444Z,4.60
2022-09-30T19:04:26.117Z,4.20
2022-09-30T19:06:54.037Z,4.60
2022-09-30T19:09:24.548Z,4.43
2022-09-30T19:11:55.511Z,3.70
2022-09-30T19:14:24.854Z,4.37
2022-09-30T19:16:52.663Z,4.00
2022-09-30T19:19:23.136Z,4.30
2022-09-30T19:21:50.988Z,4.27
2022-09-30T19:24:18.828Z,4.40
2022-09-30T19:26:47.916Z,4.20
2022-09-30T19:29:16.121Z,4.80
2022-09-30T19:31:45.221Z,3.87
2022-09-30T19:34:17.247Z,3.40
2022-09-30T19:36:59.681Z,3.87
2022-09-30T19:39:38.031Z,3.93
2022-09-30T19:42:15.012Z,3.60
2022-09-30T19:44:42.830Z,3.60
2022-09-30T19:47:11.052Z,3.93
2022-09-30T19:49:38.910Z,4.37
2022-09-30T19:52:17.122Z,4.83
2022-09-30T19:54:48.796Z,4.67
2022-09-30T19:57:16.401Z,4.10
2022-09-30T19:59:45.023Z,4.07
2022-09-30T20:02:12.863Z,4.20
2022-09-30T20:04:43.682Z,3.97
2022-09-30T20:07:14.905Z,4.33
2022-09-30T20:09:43.443Z,4.33
2022-09-30T20:12:11.264Z,4.00
2022-09-30T20:14:56.791Z,4.73
2022-09-30T20:17:24.413Z,4.80
2022-09-30T20:20:06.038Z,4.50
2022-09-30T20:22:35.127Z,4.20
2022-09-30T20:25:03.254Z,4.00
2022-09-30T20:27:34.090Z,4.97
2022-09-30T20:30:03.112Z,4.20
2022-09-30T20:32:31.100Z,4.90
2022-09-30T20:35:00.036Z,5.00
2022-09-30T20:37:27.646Z,4.50
2022-09-30T20:39:57.653Z,5.00
2022-09-30T20:42:32.714Z,5.10
2022-09-30T20:45:01.069Z,5.10
2022-09-30T20:47:28.708Z,5.07
2022-09-30T20:49:59.558Z,4.67
2022-09-30T20:52:28.830Z,4.67
2022-09-30T20:55:01.935Z,5.00
2022-09-30T20:57:30.897Z,5.20
2022-09-30T20:59:59.679Z,5.23
2022-09-30T21:02:28.839Z,4.70
2022-09-30T21:04:58.219Z,5.07
2022-09-30T21:07:25.935Z,5.67
2022-09-30T21:09:53.674Z,5.27
2022-09-30T21:12:22.850Z,5.23
2022-09-30T21:14:50.458Z,4.97
2022-09-30T21:17:18.299Z,5.97
2022-09-30T21:19:46.120Z,5.90
2022-09-30T21:22:13.688Z,6.10
2022-09-30T21:24:41.534Z,5.90
2022-09-30T21:27:09.672Z,6.60
2022-09-30T21:29:38.581Z,7.07
2022-09-30T21:32:06.422Z,6.20
2022-09-30T21:34:34.659Z,6.07
2022-09-30T21:37:02.859Z,6.67
2022-09-30T21:39:30.497Z,5.90
2022-09-30T21:41:58.372Z,6.67
2022-09-30T21:44:26.107Z,7.20
2022-09-30T21:46:55.170Z,7.80
2022-09-30T21:49:24.375Z,7.30
2022-09-30T21:51:52.824Z,7.93
2022-09-30T21:54:20.853Z,7.10
2022-09-30T21:56:49.333Z,7.03
2022-09-30T21:59:17.250Z,8.30
2022-09-30T22:01:45.276Z,6.83
2022-09-30T22:04:14.315Z,6.47
2022-09-30T22:06:41.897Z,7.80
2022-09-30T22:09:10.584Z,7.87
2022-09-30T22:11:38.628Z,8.97
2022-09-30T22:14:06.294Z,7.37
2022-09-30T22:16:35.727Z,8.30
2022-09-30T22:19:05.290Z,7.37
2022-09-30T22:21:37.810Z,7.83
2022-09-30T22:24:07.889Z,8.00
2022-09-30T22:26:37.085Z,8.93
2022-09-30T22:29:06.382Z,6.87
2022-09-30T22:31:34.822Z,6.33
2022-09-30T22:34:23.598Z,6.30
2022-09-30T22:37:11.254Z,6.20
2022-09-30T22:39:38.968Z,6.20
2022-09-30T22:42:07.215Z,6.00
2022-09-30T22:44:36.660Z,5.90
2022-09-30T22:47:05.186Z,6.57
2022-09-30T22:49:33.148Z,5.97
2022-09-30T22:52:03.640Z,6.20
2022-09-30T22:54:31.853Z,6.10
2022-09-30T22:56:59.997Z,6.00
2022-09-30T22:59:28.612Z,5.20
2022-09-30T23:01:57.038Z,6.10
2022-09-30T23:04:26.154Z,5.90
2022-09-30T23:06:56.069Z,5.43
2022-09-30T23:09:25.635Z,5.57
2022-09-30T23:11:54.881Z,5.30
2022-09-30T23:14:23.616Z,6.20
2022-09-30T23:16:51.785Z,5.10
2022-09-30T23:19:19.615Z,5.17
2022-09-30T23:21:47.232Z,5.60
2022-09-30T23:24:15.143Z,6.10
2022-09-30T23:26:44.439Z,6.50
2022-09-30T23:29:14.444Z,6.93
2022-09-30T23:31:42.965Z,6.07
2022-09-30T23:34:10.849Z,6.17
2022-09-30T23:36:38.964Z,6.03
2022-09-30T23:39:09.321Z,6.40
2022-09-30T23:41:37.336Z,6.10
2022-09-30T23:44:06.925Z,6.00
2022-09-30T23:46:34.576Z,6.77
2022-09-30T23:49:02.188Z,6.73
2022-09-30T23:51:29.913Z,6.77
2022-09-30T23:53:57.705Z,6.57
2022-09-30T23:56:25.369Z,6.30
2022-09-30T23:58:53.140Z,6.90
